sensor_id;sensor_type;location;lat;lon;timestamp;pressure;altitude;pressure_sealevel;temperature;humidity
25638;BME280;13496;51.040;13.680;2024-02-28T00:04:05;99889.41;;;18.40;50.19
25638;BME280;13496;51.040;13.680;2024-02-28T00:09:07;99890.38;;;18.39;50.58
25638;BME280;13496;51.040;13.680;2024-02-28T00:14:09;99901.72;;;18.40;50.39
25638;BME280;13496;51.040;13.680;2024-02-28T00:19:12;99902.53;;;18.40;50.54
25638;BME280;13496;51.040;13.680;2024-02-28T00:24:14;99897.44;;;18.38;50.34
25638;BME280;13496;51.040;13.680;2024-02-28T00:29:16;99906.97;;;18.40;49.83
25638;BME280;13496;51.040;13.680;2024-02-28T00:34:17;99917.50;;;18.40;50.10
25638;BME280;13496;51.040;13.680;2024-02-28T00:39:19;99921.75;;;18.41;50.30
25638;BME280;13496;51.040;13.680;2024-02-28T00:44:21;99914.03;;;18.39;50.04
25638;BME280;13496;51.040;13.680;2024-02-28T00:49:23;99912.41;;;18.38;50.15
25638;BME280;13496;51.040;13.680;2024-02-28T00:54:25;99921.28;;;18.37;50.24
25638;BME280;13496;51.040;13.680;2024-02-28T00:59:27;99927.34;;;18.37;50.42
25638;BME280;13496;51.040;13.680;2024-02-28T01:04:29;99929.38;;;18.35;50.53
25638;BME280;13496;51.040;13.680;2024-02-28T01:09:31;99923.72;;;18.38;50.28
25638;BME280;13496;51.040;13.680;2024-02-28T01:14:33;99928.34;;;18.36;50.14
25638;BME280;13496;51.040;13.680;2024-02-28T01:19:35;99919.66;;;18.36;50.26
25638;BME280;13496;51.040;13.680;2024-02-28T01:24:37;99914.56;;;18.34;50.24
25638;BME280;13496;51.040;13.680;2024-02-28T01:29:39;99906.34;;;18.37;50.31
25638;BME280;13496;51.040;13.680;2024-02-28T01:34:40;99907.34;;;18.36;50.25
25638;BME280;13496;51.040;13.680;2024-02-28T01:39:42;99897.66;;;18.37;50.08
25638;BME280;13496;51.040;13.680;2024-02-28T01:44:46;99900.28;;;18.37;50.42
25638;BME280;13496;51.040;13.680;2024-02-28T01:49:50;99895.03;;;18.37;50.32
25638;BME280;13496;51.040;13.680;2024-02-28T01:54:52;99888.94;;;18.36;50.32
25638;BME280;13496;51.040;13.680;2024-02-28T01:59:54;99889.75;;;18.37;50.40
25638;BME280;13496;51.040;13.680;2024-02-28T02:04:57;99888.94;;;18.36;50.11
25638;BME280;13496;51.040;13.680;2024-02-28T02:10:00;99888.31;;;18.34;50.24
25638;BME280;13496;51.040;13.680;2024-02-28T02:15:02;99879.47;;;18.35;50.16
25638;BME280;13496;51.040;13.680;2024-02-28T02:20:04;99879.63;;;18.34;50.25
25638;BME280;13496;51.040;13.680;2024-02-28T02:25:07;99882.44;;;18.32;50.14
25638;BME280;13496;51.040;13.680;2024-02-28T02:30:10;99891.94;;;18.33;50.19
25638;BME280;13496;51.040;13.680;2024-02-28T02:35:12;99891.13;;;18.33;50.35
25638;BME280;13496;51.040;13.680;2024-02-28T02:40:15;99896.38;;;18.33;50.22
25638;BME280;13496;51.040;13.680;2024-02-28T02:45:17;99884.06;;;18.33;50.16
25638;BME280;13496;51.040;13.680;2024-02-28T02:50:19;99887.50;;;18.34;49.89
25638;BME280;13496;51.040;13.680;2024-02-28T02:55:21;99894.56;;;18.33;50.19
25638;BME280;13496;51.040;13.680;2024-02-28T03:00:22;99897.19;;;18.33;49.97
25638;BME280;13496;51.040;13.680;2024-02-28T03:05:24;99899.19;;;18.31;50.25
25638;BME280;13496;51.040;13.680;2024-02-28T03:10:26;99908.34;;;18.35;49.95
25638;BME280;13496;51.040;13.680;2024-02-28T03:15:28;99916.22;;;18.35;49.93
25638;BME280;13496;51.040;13.680;2024-02-28T03:20:30;99919.22;;;18.32;50.03
25638;BME280;13496;51.040;13.680;2024-02-28T03:25:32;99928.72;;;18.33;50.09
25638;BME280;13496;51.040;13.680;2024-02-28T03:30:34;99929.06;;;18.30;50.10
25638;BME280;13496;51.040;13.680;2024-02-28T03:35:36;99936.94;;;18.30;50.44
25638;BME280;13496;51.040;13.680;2024-02-28T03:40:38;99943.00;;;18.31;50.40
25638;BME280;13496;51.040;13.680;2024-02-28T03:45:39;99947.47;;;18.30;50.69
25638;BME280;13496;51.040;13.680;2024-02-28T03:50:41;99951.09;;;18.29;50.28
25638;BME280;13496;51.040;13.680;2024-02-28T03:55:43;99966.66;;;18.31;50.35
25638;BME280;13496;51.040;13.680;2024-02-28T04:00:45;99964.03;;;18.31;50.36
25638;BME280;13496;51.040;13.680;2024-02-28T04:05:47;99971.56;;;18.34;50.58
25638;BME280;13496;51.040;13.680;2024-02-28T04:10:49;99988.31;;;18.33;50.45
25638;BME280;13496;51.040;13.680;2024-02-28T04:15:52;100005.91;;;18.32;50.66
25638;BME280;13496;51.040;13.680;2024-02-28T04:20:54;100016.22;;;18.34;50.73
25638;BME280;13496;51.040;13.680;2024-02-28T04:25:56;100024.09;;;18.34;50.60
25638;BME280;13496;51.040;13.680;2024-02-28T04:30:57;100011.16;;;18.32;50.62
25638;BME280;13496;51.040;13.680;2024-02-28T04:35:59;100025.91;;;18.33;50.38
25638;BME280;13496;51.040;13.680;2024-02-28T04:41:01;100027.88;;;18.31;50.60
25638;BME280;13496;51.040;13.680;2024-02-28T04:46:03;100029.53;;;18.32;50.38
25638;BME280;13496;51.040;13.680;2024-02-28T04:51:05;100033.97;;;18.32;50.73
25638;BME280;13496;51.040;13.680;2024-02-28T04:56:07;100036.41;;;18.33;50.36
25638;BME280;13496;51.040;13.680;2024-02-28T05:01:09;100040.03;;;18.32;50.36
25638;BME280;13496;51.040;13.680;2024-02-28T05:06:11;100038.03;;;18.34;50.66
25638;BME280;13496;51.040;13.680;2024-02-28T05:11:13;100042.66;;;18.32;50.57
25638;BME280;13496;51.040;13.680;2024-02-28T05:16:15;100042.84;;;18.31;50.52
25638;BME280;13496;51.040;13.680;2024-02-28T05:21:17;100038.22;;;18.33;50.38
25638;BME280;13496;51.040;13.680;2024-02-28T05:26:19;100052.19;;;18.33;50.41
25638;BME280;13496;51.040;13.680;2024-02-28T05:31:22;100059.41;;;18.31;50.91
25638;BME280;13496;51.040;13.680;2024-02-28T05:36:26;100057.97;;;18.29;50.56
25638;BME280;13496;51.040;13.680;2024-02-28T05:41:28;100069.91;;;18.31;50.49
25638;BME280;13496;51.040;13.680;2024-02-28T05:46:30;100072.53;;;18.31;50.67
25638;BME280;13496;51.040;13.680;2024-02-28T05:51:32;100071.91;;;18.29;50.81
25638;BME280;13496;51.040;13.680;2024-02-28T05:56:34;100085.66;;;18.31;50.43
25638;BME280;13496;51.040;13.680;2024-02-28T06:01:35;100088.13;;;18.33;50.85
25638;BME280;13496;51.040;13.680;2024-02-28T06:06:37;100094.56;;;18.30;50.92
25638;BME280;13496;51.040;13.680;2024-02-28T06:11:39;100095.56;;;18.29;50.92
25638;BME280;13496;51.040;13.680;2024-02-28T06:16:41;100106.69;;;18.31;51.00
25638;BME280;13496;51.040;13.680;2024-02-28T06:21:42;100107.53;;;18.32;51.30
25638;BME280;13496;51.040;13.680;2024-02-28T06:26:44;100101.44;;;18.31;51.09
25638;BME280;13496;51.040;13.680;2024-02-28T06:31:50;100112.59;;;18.33;51.26
25638;BME280;13496;51.040;13.680;2024-02-28T06:36:52;100117.84;;;18.33;51.13
25638;BME280;13496;51.040;13.680;2024-02-28T06:41:54;100126.38;;;18.35;51.35
25638;BME280;13496;51.040;13.680;2024-02-28T06:46:55;100129.81;;;18.36;51.18
25638;BME280;13496;51.040;13.680;2024-02-28T06:51:57;100131.63;;;18.35;51.16
25638;BME280;13496;51.040;13.680;2024-02-28T06:57:02;100134.25;;;18.35;51.37
25638;BME280;13496;51.040;13.680;2024-02-28T07:02:04;100146.41;;;18.36;51.31
25638;BME280;13496;51.040;13.680;2024-02-28T07:07:06;100144.38;;;18.38;51.40
25638;BME280;13496;51.040;13.680;2024-02-28T07:12:08;100149.66;;;18.38;51.35
25638;BME280;13496;51.040;13.680;2024-02-28T07:17:10;100158.53;;;18.37;51.38
25638;BME280;13496;51.040;13.680;2024-02-28T07:22:12;100152.28;;;18.38;50.99
25638;BME280;13496;51.040;13.680;2024-02-28T07:27:14;100150.47;;;18.39;51.14
25638;BME280;13496;51.040;13.680;2024-02-28T07:32:15;100151.66;;;18.36;51.18
25638;BME280;13496;51.040;13.680;2024-02-28T07:37:17;100157.53;;;18.38;51.29
25638;BME280;13496;51.040;13.680;2024-02-28T07:42:19;100158.53;;;18.37;51.40
25638;BME280;13496;51.040;13.680;2024-02-28T07:47:21;100162.63;;;18.40;51.35
25638;BME280;13496;51.040;13.680;2024-02-28T07:52:24;100169.50;;;18.41;51.07
25638;BME280;13496;51.040;13.680;2024-02-28T07:57:25;100185.44;;;18.40;51.28
25638;BME280;13496;51.040;13.680;2024-02-28T08:02:27;100180.00;;;18.41;51.18
25638;BME280;13496;51.040;13.680;2024-02-28T08:07:29;100188.06;;;18.40;51.25
25638;BME280;13496;51.040;13.680;2024-02-28T08:12:31;100192.50;;;18.39;51.15
25638;BME280;13496;51.040;13.680;2024-02-28T08:17:33;100193.97;;;18.42;50.93
25638;BME280;13496;51.040;13.680;2024-02-28T08:22:35;100188.06;;;18.40;50.95
25638;BME280;13496;51.040;13.680;2024-02-28T08:27:38;100199.06;;;18.43;50.92
25638;BME280;13496;51.040;13.680;2024-02-28T08:32:41;100200.84;;;18.43;51.00
25638;BME280;13496;51.040;13.680;2024-02-28T08:37:43;100207.09;;;18.42;51.10
25638;BME280;13496;51.040;13.680;2024-02-28T08:42:46;100213.16;;;18.42;50.93
25638;BME280;13496;51.040;13.680;2024-02-28T08:47:48;100208.72;;;18.43;50.85
25638;BME280;13496;51.040;13.680;2024-02-28T08:52:49;100223.50;;;18.44;50.63
25638;BME280;13496;51.040;13.680;2024-02-28T08:57:51;100215.63;;;18.44;50.83
25638;BME280;13496;51.040;13.680;2024-02-28T09:02:53;100226.13;;;18.44;50.85
25638;BME280;13496;51.040;13.680;2024-02-28T09:07:55;100224.47;;;18.43;50.70
25638;BME280;13496;51.040;13.680;2024-02-28T09:12:58;100235.66;;;18.45;50.82
25638;BME280;13496;51.040;13.680;2024-02-28T09:18:00;100231.41;;;18.44;51.05
25638;BME280;13496;51.040;13.680;2024-02-28T09:23:02;100227.59;;;18.46;50.96
25638;BME280;13496;51.040;13.680;2024-02-28T09:28:04;100232.03;;;18.46;50.77
25638;BME280;13496;51.040;13.680;2024-02-28T09:33:06;100238.94;;;18.47;51.02
25638;BME280;13496;51.040;13.680;2024-02-28T09:38:08;100247.63;;;18.47;50.63
25638;BME280;13496;51.040;13.680;2024-02-28T09:43:24;100262.75;;;18.45;50.88
25638;BME280;13496;51.040;13.680;2024-02-28T09:48:29;100268.19;;;18.44;51.02
25638;BME280;13496;51.040;13.680;2024-02-28T09:53:31;100268.81;;;18.46;50.63
25638;BME280;13496;51.040;13.680;2024-02-28T09:58:33;100267.00;;;18.46;50.69
25638;BME280;13496;51.040;13.680;2024-02-28T10:03:37;100275.72;;;18.47;50.92
25638;BME280;13496;51.040;13.680;2024-02-28T10:08:39;100280.50;;;18.43;50.62
25638;BME280;13496;51.040;13.680;2024-02-28T10:13:42;100273.78;;;18.41;50.82
25638;BME280;13496;51.040;13.680;2024-02-28T10:18:44;100284.91;;;18.43;50.83
25638;BME280;13496;51.040;13.680;2024-02-28T10:23:46;100295.25;;;18.44;50.88
25638;BME280;13496;51.040;13.680;2024-02-28T10:28:48;100296.91;;;18.45;50.77
25638;BME280;13496;51.040;13.680;2024-02-28T10:33:50;100315.47;;;18.44;50.81
25638;BME280;13496;51.040;13.680;2024-02-28T10:38:52;100322.16;;;18.46;50.82
25638;BME280;13496;51.040;13.680;2024-02-28T10:43:54;100313.47;;;18.46;50.65
25638;BME280;13496;51.040;13.680;2024-02-28T10:48:57;100332.53;;;18.48;50.41
25638;BME280;13496;51.040;13.680;2024-02-28T10:54:09;100331.72;;;18.47;50.58
25638;BME280;13496;51.040;13.680;2024-02-28T10:59:12;100330.91;;;18.47;50.75
25638;BME280;13496;51.040;13.680;2024-02-28T11:04:17;100321.19;;;18.47;50.69
25638;BME280;13496;51.040;13.680;2024-02-28T11:09:23;100322.66;;;18.50;50.30
25638;BME280;13496;51.040;13.680;2024-02-28T11:14:25;100324.44;;;18.49;50.69
25638;BME280;13496;51.040;13.680;2024-02-28T11:19:29;100323.50;;;18.50;50.59
25638;BME280;13496;51.040;13.680;2024-02-28T11:24:34;100339.06;;;18.52;50.40
25638;BME280;13496;51.040;13.680;2024-02-28T11:29:38;100325.94;;;18.52;50.67
25638;BME280;13496;51.040;13.680;2024-02-28T11:34:40;100322.00;;;18.48;50.67
25638;BME280;13496;51.040;13.680;2024-02-28T11:39:46;100332.00;;;18.52;50.37
25638;BME280;13496;51.040;13.680;2024-02-28T11:44:55;100334.63;;;18.52;50.39
25638;BME280;13496;51.040;13.680;2024-02-28T11:50:02;100344.13;;;18.53;50.43
25638;BME280;13496;51.040;13.680;2024-02-28T11:55:05;100336.63;;;18.50;50.67
25638;BME280;13496;51.040;13.680;2024-02-28T12:00:07;100336.44;;;18.52;50.42
25638;BME280;13496;51.040;13.680;2024-02-28T12:05:12;100345.94;;;18.53;50.67
25638;BME280;13496;51.040;13.680;2024-02-28T12:10:14;100340.88;;;18.51;50.44
25638;BME280;13496;51.040;13.680;2024-02-28T12:15:16;100334.63;;;18.52;50.44
25638;BME280;13496;51.040;13.680;2024-02-28T12:20:18;100332.81;;;18.53;50.61
25638;BME280;13496;51.040;13.680;2024-02-28T12:25:20;100338.06;;;18.53;50.55
25638;BME280;13496;51.040;13.680;2024-02-28T12:30:22;100338.72;;;18.55;50.73
25638;BME280;13496;51.040;13.680;2024-02-28T12:35:24;100341.97;;;18.57;50.43
25638;BME280;13496;51.040;13.680;2024-02-28T12:40:26;100335.91;;;18.56;50.46
25638;BME280;13496;51.040;13.680;2024-02-28T12:45:28;100342.16;;;18.55;50.29
25638;BME280;13496;51.040;13.680;2024-02-28T12:50:29;100335.91;;;18.56;50.26
25638;BME280;13496;51.040;13.680;2024-02-28T12:55:31;100333.94;;;18.58;50.23
25638;BME280;13496;51.040;13.680;2024-02-28T13:00:33;100340.00;;;18.59;50.49
25638;BME280;13496;51.040;13.680;2024-02-28T13:05:35;100336.56;;;18.58;50.38
25638;BME280;13496;51.040;13.680;2024-02-28T13:10:37;100339.19;;;18.58;50.30
25638;BME280;13496;51.040;13.680;2024-02-28T13:15:42;100338.00;;;18.61;50.14
25638;BME280;13496;51.040;13.680;2024-02-28T13:20:46;100332.75;;;18.61;50.26
25638;BME280;13496;51.040;13.680;2024-02-28T13:25:48;100329.16;;;18.62;50.41
25638;BME280;13496;51.040;13.680;2024-02-28T13:30:51;100330.78;;;18.63;50.06
25638;BME280;13496;51.040;13.680;2024-02-28T13:35:53;100336.69;;;18.65;50.24
25638;BME280;13496;51.040;13.680;2024-02-28T13:40:55;100328.44;;;18.68;50.22
25638;BME280;13496;51.040;13.680;2024-02-28T13:45:58;100333.53;;;18.70;50.27
25638;BME280;13496;51.040;13.680;2024-02-28T13:51:02;100324.84;;;18.69;50.22
25638;BME280;13496;51.040;13.680;2024-02-28T13:56:04;100341.28;;;18.71;50.32
25638;BME280;13496;51.040;13.680;2024-02-28T14:01:07;100328.94;;;18.72;50.23
25638;BME280;13496;51.040;13.680;2024-02-28T14:06:09;100330.75;;;18.71;50.11
25638;BME280;13496;51.040;13.680;2024-02-28T14:11:11;100332.38;;;18.72;50.09
25638;BME280;13496;51.040;13.680;2024-02-28T14:16:13;100328.13;;;18.71;50.07
25638;BME280;13496;51.040;13.680;2024-02-28T14:21:14;100322.72;;;18.73;50.02
25638;BME280;13496;51.040;13.680;2024-02-28T14:26:17;100324.16;;;18.75;49.82
25638;BME280;13496;51.040;13.680;2024-02-28T14:31:19;100306.75;;;18.74;50.39
25638;BME280;13496;51.040;13.680;2024-02-28T14:36:21;100309.19;;;18.76;50.16
25638;BME280;13496;51.040;13.680;2024-02-28T14:41:23;100303.13;;;18.75;50.12
25638;BME280;13496;51.040;13.680;2024-02-28T14:46:25;100308.38;;;18.75;49.98
25638;BME280;13496;51.040;13.680;2024-02-28T14:51:27;100303.31;;;18.74;50.35
25638;BME280;13496;51.040;13.680;2024-02-28T14:56:28;100298.88;;;18.74;50.24
25638;BME280;13496;51.040;13.680;2024-02-28T15:01:30;100298.88;;;18.74;50.20
25638;BME280;13496;51.040;13.680;2024-02-28T15:06:32;100306.75;;;18.74;50.29
25638;BME280;13496;51.040;13.680;2024-02-28T15:11:35;100303.94;;;18.76;49.95
25638;BME280;13496;51.040;13.680;2024-02-28T15:16:37;100301.50;;;18.74;49.98
25638;BME280;13496;51.040;13.680;2024-02-28T15:21:38;100303.13;;;18.75;50.07
25638;BME280;13496;51.040;13.680;2024-02-28T15:26:40;100299.53;;;18.76;50.03
25638;BME280;13496;51.040;13.680;2024-02-28T15:31:42;100302.16;;;18.76;50.14
25638;BME280;13496;51.040;13.680;2024-02-28T15:36:44;100307.41;;;18.76;50.30
25638;BME280;13496;51.040;13.680;2024-02-28T15:41:46;100304.78;;;18.76;50.01
25638;BME280;13496;51.040;13.680;2024-02-28T15:46:48;100313.63;;;18.75;50.29
25638;BME280;13496;51.040;13.680;2024-02-28T15:51:50;100302.16;;;18.76;49.86
25638;BME280;13496;51.040;13.680;2024-02-28T15:56:51;100302.16;;;18.76;49.90
25638;BME280;13496;51.040;13.680;2024-02-28T16:01:53;100296.72;;;18.78;50.10
25638;BME280;13496;51.040;13.680;2024-02-28T16:06:56;100310.03;;;18.76;50.04
25638;BME280;13496;51.040;13.680;2024-02-28T16:11:57;100316.94;;;18.77;50.00
25638;BME280;13496;51.040;13.680;2024-02-28T16:16:59;100312.81;;;18.75;49.96
25638;BME280;13496;51.040;13.680;2024-02-28T16:22:01;100313.63;;;18.75;49.76
25638;BME280;13496;51.040;13.680;2024-02-28T16:27:05;100324.16;;;18.75;49.88
25638;BME280;13496;51.040;13.680;2024-02-28T16:32:07;100318.28;;;18.73;49.82
25638;BME280;13496;51.040;13.680;2024-02-28T16:37:09;100322.53;;;18.74;50.08
25638;BME280;13496;51.040;13.680;2024-02-28T16:42:11;100321.72;;;18.74;50.16
25638;BME280;13496;51.040;13.680;2024-02-28T16:47:13;100317.63;;;18.71;49.80
25638;BME280;13496;51.040;13.680;2024-02-28T16:52:15;100325.50;;;18.71;50.09
25638;BME280;13496;51.040;13.680;2024-02-28T16:57:18;100330.09;;;18.69;50.03
25638;BME280;13496;51.040;13.680;2024-02-28T17:02:20;100331.72;;;18.70;50.04
25638;BME280;13496;51.040;13.680;2024-02-28T17:07:21;100340.63;;;18.69;50.18
25638;BME280;13496;51.040;13.680;2024-02-28T17:12:26;100340.63;;;18.69;50.12
25638;BME280;13496;51.040;13.680;2024-02-28T17:17:28;100344.88;;;18.70;49.80
25638;BME280;13496;51.040;13.680;2024-02-28T17:22:30;100347.50;;;18.70;49.90
25638;BME280;13496;51.040;13.680;2024-02-28T17:27:32;100342.41;;;18.69;49.88
25638;BME280;13496;51.040;13.680;2024-02-28T17:32:34;100349.66;;;18.67;50.10
25638;BME280;13496;51.040;13.680;2024-02-28T17:37:36;100355.72;;;18.67;50.11
25638;BME280;13496;51.040;13.680;2024-02-28T17:42:38;100357.53;;;18.67;49.83
25638;BME280;13496;51.040;13.680;2024-02-28T17:47:40;100356.88;;;18.65;49.68
25638;BME280;13496;51.040;13.680;2024-02-28T17:52:44;100355.09;;;18.65;49.73
25638;BME280;13496;51.040;13.680;2024-02-28T17:57:46;100360.50;;;18.63;50.03
25638;BME280;13496;51.040;13.680;2024-02-28T18:02:50;100361.31;;;18.64;50.01
25638;BME280;13496;51.040;13.680;2024-02-28T18:07:52;100362.50;;;18.61;49.99
25638;BME280;13496;51.040;13.680;2024-02-28T18:12:54;100370.41;;;18.61;50.00
25638;BME280;13496;51.040;13.680;2024-02-28T18:17:56;100360.69;;;18.62;50.03
25638;BME280;13496;51.040;13.680;2024-02-28T18:22:58;100358.88;;;18.62;49.87
25638;BME280;13496;51.040;13.680;2024-02-28T18:28:00;100368.41;;;18.63;50.07
25638;BME280;13496;51.040;13.680;2024-02-28T18:33:02;100367.09;;;18.59;50.17
25638;BME280;13496;51.040;13.680;2024-02-28T18:38:04;100368.25;;;18.57;50.22
25638;BME280;13496;51.040;13.680;2024-02-28T18:43:06;100362.03;;;18.58;50.37
25638;BME280;13496;51.040;13.680;2024-02-28T18:48:07;100368.09;;;18.58;50.16
25638;BME280;13496;51.040;13.680;2024-02-28T18:53:11;100371.69;;;18.57;49.95
25638;BME280;13496;51.040;13.680;2024-02-28T18:58:12;100384.03;;;18.57;49.86
25638;BME280;13496;51.040;13.680;2024-02-28T19:03:14;100391.75;;;18.58;50.23
25638;BME280;13496;51.040;13.680;2024-02-28T19:08:16;100386.03;;;18.55;50.07
25638;BME280;13496;51.040;13.680;2024-02-28T19:13:18;100383.41;;;18.55;50.15
25638;BME280;13496;51.040;13.680;2024-02-28T19:18:20;100391.28;;;18.55;50.11
25638;BME280;13496;51.040;13.680;2024-02-28T19:23:22;100397.16;;;18.57;50.34
25638;BME280;13496;51.040;13.680;2024-02-28T19:28:24;100396.19;;;18.58;50.70
25638;BME280;13496;51.040;13.680;2024-02-28T19:33:26;100393.91;;;18.55;50.92
25638;BME280;13496;51.040;13.680;2024-02-28T19:38:27;100392.25;;;18.54;50.82
25638;BME280;13496;51.040;13.680;2024-02-28T19:43:29;100385.22;;;18.54;51.00
25638;BME280;13496;51.040;13.680;2024-02-28T19:48:36;100384.03;;;18.57;51.18
25638;BME280;13496;51.040;13.680;2024-02-28T19:53:43;100386.03;;;18.55;51.02
25638;BME280;13496;51.040;13.680;2024-02-28T19:58:46;100384.38;;;18.54;51.40
25638;BME280;13496;51.040;13.680;2024-02-28T20:03:49;100388.66;;;18.55;51.49
25638;BME280;13496;51.040;13.680;2024-02-28T20:08:51;100385.22;;;18.54;51.14
25638;BME280;13496;51.040;13.680;2024-02-28T20:13:53;100390.47;;;18.54;51.40
25638;BME280;13496;51.040;13.680;2024-02-28T20:18:55;100386.03;;;18.55;51.38
25638;BME280;13496;51.040;13.680;2024-02-28T20:23:56;100384.38;;;18.54;51.09
25638;BME280;13496;51.040;13.680;2024-02-28T20:28:58;100387.66;;;18.56;50.99
25638;BME280;13496;51.040;13.680;2024-02-28T20:34:00;100387.00;;;18.54;51.00
25638;BME280;13496;51.040;13.680;2024-02-28T20:39:02;100379.97;;;18.54;51.11
25638;BME280;13496;51.040;13.680;2024-02-28T20:44:04;100383.56;;;18.53;51.03
25638;BME280;13496;51.040;13.680;2024-02-28T20:49:10;100385.22;;;18.54;51.29
25638;BME280;13496;51.040;13.680;2024-02-28T20:54:12;100391.28;;;18.55;51.09
25638;BME280;13496;51.040;13.680;2024-02-28T20:59:14;100381.59;;;18.55;51.32
25638;BME280;13496;51.040;13.680;2024-02-28T21:04:16;100383.56;;;18.53;50.87
25638;BME280;13496;51.040;13.680;2024-02-28T21:09:19;100375.84;;;18.52;51.05
25638;BME280;13496;51.040;13.680;2024-02-28T21:14:20;100368.97;;;18.51;51.17
25638;BME280;13496;51.040;13.680;2024-02-28T21:19:22;100360.09;;;18.52;51.00
25638;BME280;13496;51.040;13.680;2024-02-28T21:24:24;100355.84;;;18.51;50.93
25638;BME280;13496;51.040;13.680;2024-02-28T21:29:26;100358.47;;;18.51;51.21
25638;BME280;13496;51.040;13.680;2024-02-28T21:34:28;100360.09;;;18.52;50.78
25638;BME280;13496;51.040;13.680;2024-02-28T21:39:30;100355.19;;;18.49;50.57
25638;BME280;13496;51.040;13.680;2024-02-28T21:44:34;100356.81;;;18.50;50.77
25638;BME280;13496;51.040;13.680;2024-02-28T21:49:36;100357.66;;;18.50;50.61
25638;BME280;13496;51.040;13.680;2024-02-28T21:54:41;100360.13;;;18.44;50.64
25638;BME280;13496;51.040;13.680;2024-02-28T21:59:43;100359.31;;;18.43;50.86
25638;BME280;13496;51.040;13.680;2024-02-28T22:04:45;100345.34;;;18.43;50.87
25638;BME280;13496;51.040;13.680;2024-02-28T22:09:47;100340.94;;;18.43;50.46
25638;BME280;13496;51.040;13.680;2024-02-28T22:14:49;100343.38;;;18.45;50.70
25638;BME280;13496;51.040;13.680;2024-02-28T22:19:50;100350.59;;;18.43;50.52
25638;BME280;13496;51.040;13.680;2024-02-28T22:24:52;100345.34;;;18.43;50.38
25638;BME280;13496;51.040;13.680;2024-02-28T22:29:54;100342.09;;;18.41;50.55
25638;BME280;13496;51.040;13.680;2024-02-28T22:34:56;100338.97;;;18.37;50.35
25638;BME280;13496;51.040;13.680;2024-02-28T22:39:58;100341.44;;;18.38;50.34
25638;BME280;13496;51.040;13.680;2024-02-28T22:44:59;100328.66;;;18.35;50.45
25638;BME280;13496;51.040;13.680;2024-02-28T22:50:02;100335.06;;;18.33;50.35
25638;BME280;13496;51.040;13.680;2024-02-28T22:55:04;100346.38;;;18.33;50.62
25638;BME280;13496;51.040;13.680;2024-02-28T23:00:06;100334.25;;;18.32;50.28
25638;BME280;13496;51.040;13.680;2024-02-28T23:05:31;100333.44;;;18.32;50.33
25638;BME280;13496;51.040;13.680;2024-02-28T23:10:33;100330.97;;;18.30;50.47
25638;BME280;13496;51.040;13.680;2024-02-28T23:15:35;100341.47;;;18.30;50.45
25638;BME280;13496;51.040;13.680;2024-02-28T23:20:36;100337.22;;;18.29;50.11
25638;BME280;13496;51.040;13.680;2024-02-28T23:25:39;100337.03;;;18.31;50.24
25638;BME280;13496;51.040;13.680;2024-02-28T23:30:41;100337.22;;;18.29;50.34
25638;BME280;13496;51.040;13.680;2024-02-28T23:35:43;100335.41;;;18.30;50.41
25638;BME280;13496;51.040;13.680;2024-02-28T23:40:45;100332.97;;;18.28;50.27
25638;BME280;13496;51.040;13.680;2024-02-28T23:45:47;100324.75;;;18.23;50.10
25638;BME280;13496;51.040;13.680;2024-02-28T23:50:52;100323.59;;;18.26;50.08
25638;BME280;13496;51.040;13.680;2024-02-28T23:55:54;100314.25;;;18.23;50.38
